createdAt,value
2018-06-08T00:23:46.758Z,56.09
2018-06-08T00:51:41.692Z,58.15
2018-06-08T00:54:14.062Z,58.12
2018-06-08T01:13:49.540Z,59.87
2018-06-08T02:03:50.106Z,62.72
2018-06-08T02:09:25.560Z,62.50
2018-06-08T02:11:55.615Z,62.83
2018-06-08T03:16:24.390Z,63.92
2018-06-08T03:27:24.361Z,63.42
2018-06-08T03:29:58.437Z,65.16
2018-06-08T04:48:25.737Z,63.11
2018-06-08T04:53:46.582Z,63.22
2018-06-08T05:07:27.436Z,59.93
2018-06-08T05:23:57.137Z,60.78
2018-06-08T05:29:15.633Z,60.45
2018-06-08T05:34:40.541Z,59.39
2018-06-08T05:37:26.100Z,59.39
2018-06-08T05:56:43.472Z,55.14
2018-06-08T06:21:34.795Z,53.70
2018-06-08T06:27:00.389Z,51.60
2018-06-08T06:29:29.628Z,50.96
2018-06-08T06:40:34.742Z,48.70
2018-06-08T06:51:26.523Z,49.92
2018-06-08T06:53:55.538Z,48.22
2018-06-08T07:07:39.142Z,48.34
2018-06-08T07:13:03.216Z,47.21
2018-06-08T08:26:13.314Z,40.04
2018-06-08T08:34:18.536Z,38.82
2018-06-08T08:36:48.303Z,39.03
2018-06-08T09:10:26.592Z,31.34
2018-06-08T09:29:42.988Z,32.46
2018-06-08T09:32:11.685Z,32.58
2018-06-08T09:43:07.176Z,30.59
2018-06-08T09:48:32.523Z,29.90
2018-06-08T10:05:02.203Z,28.98
2018-06-08T10:07:31.204Z,29.47
2018-06-08T10:15:35.273Z,29.20
2018-06-08T10:46:23.113Z,25.48
2018-06-08T11:02:55.323Z,23.31
2018-06-08T11:08:24.193Z,25.50
2018-06-08T11:16:34.594Z,25.52
2018-06-08T11:21:53.009Z,26.17
2018-06-08T11:24:21.752Z,26.20
2018-06-08T12:14:44.248Z,23.97
2018-06-08T13:21:37.645Z,20.54
2018-06-08T15:33:03.004Z,18.86
2018-06-08T16:03:46.819Z,24.16
2018-06-08T16:06:19.714Z,24.33
2018-06-08T17:24:09.000Z,22.94
2018-06-08T17:26:41.120Z,25.24
2018-06-08T17:32:16.289Z,26.47
2018-06-08T17:34:54.580Z,27.22
2018-06-08T17:40:16.638Z,29.07
2018-06-08T17:48:21.344Z,31.71
2018-06-08T17:53:42.614Z,31.68
2018-06-08T17:56:14.262Z,29.61
2018-06-08T17:58:46.638Z,29.33
2018-06-08T18:01:15.930Z,31.55
2018-06-08T18:06:32.824Z,32.99
2018-06-08T18:09:01.629Z,34.11
2018-06-08T18:14:18.622Z,34.64
2018-06-08T18:16:53.660Z,34.90
2018-06-08T18:19:23.057Z,35.31
2018-06-08T18:24:45.817Z,35.73
2018-06-08T18:27:24.762Z,36.09
2018-06-08T18:35:30.722Z,39.91
2018-06-08T18:54:46.423Z,42.96
2018-06-08T18:57:15.791Z,43.38
2018-06-08T18:59:44.723Z,43.10
2018-06-08T19:02:17.101Z,43.83
2018-06-08T19:04:53.100Z,44.08
2018-06-08T19:07:25.015Z,44.39
2018-06-08T19:09:53.949Z,44.55
2018-06-08T19:12:28.452Z,44.37
2018-06-08T19:14:59.185Z,43.26
2018-06-08T19:20:17.068Z,39.30
2018-06-08T19:22:45.871Z,38.02
2018-06-08T19:25:23.665Z,36.82
2018-06-08T19:27:53.403Z,36.26
2018-06-08T19:30:26.344Z,35.47
2018-06-08T19:32:55.567Z,36.52
2018-06-08T19:35:25.336Z,35.78
2018-06-08T19:37:54.101Z,36.25
2018-06-08T19:40:22.970Z,36.01
2018-06-08T19:42:51.673Z,36.09
2018-06-08T19:45:20.694Z,36.17
2018-06-08T19:47:49.772Z,37.01
2018-06-08T19:50:19.921Z,35.81
2018-06-08T19:52:49.411Z,37.64
2018-06-08T19:55:18.644Z,36.26
2018-06-08T19:57:47.420Z,37.25
2018-06-08T20:00:32.763Z,36.02
2018-06-08T20:03:01.509Z,37.30
2018-06-08T20:05:30.889Z,37.45
2018-06-08T20:07:59.861Z,35.77
2018-06-08T20:10:28.875Z,37.67
2018-06-08T20:12:57.690Z,38.82
2018-06-08T20:15:26.530Z,39.49
2018-06-08T20:17:55.357Z,40.02
2018-06-08T20:20:24.160Z,40.38
2018-06-08T20:22:53.753Z,40.87
2018-06-08T20:25:22.852Z,41.32
2018-06-08T20:27:51.731Z,41.69
2018-06-08T20:30:21.326Z,41.92
2018-06-08T20:32:50.422Z,42.32
2018-06-08T20:35:19.284Z,42.77
2018-06-08T20:38:09.608Z,43.17
2018-06-08T20:40:38.596Z,43.85
2018-06-08T20:43:07.982Z,44.49
2018-06-08T20:45:37.311Z,45.36
2018-06-08T20:48:06.110Z,45.94
2018-06-08T20:50:35.202Z,46.65
2018-06-08T20:53:04.012Z,47.09
2018-06-08T20:55:34.049Z,48.13
2018-06-08T20:58:03.573Z,48.32
2018-06-08T21:00:32.804Z,48.52
2018-06-08T21:03:02.511Z,48.55
2018-06-08T21:05:31.645Z,48.66
2018-06-08T21:08:00.500Z,48.69
2018-06-08T21:10:29.496Z,49.34
2018-06-08T21:12:58.315Z,49.16
2018-06-08T21:15:27.038Z,49.02
2018-06-08T21:17:56.023Z,49.19
2018-06-08T21:20:24.866Z,49.11
2018-06-08T21:22:53.666Z,48.92
2018-06-08T21:25:22.366Z,48.96
2018-06-08T21:27:51.281Z,48.97
2018-06-08T21:30:20.367Z,48.62
2018-06-08T21:32:49.379Z,48.07
2018-06-08T21:35:18.138Z,47.95
2018-06-08T21:37:46.961Z,47.97
2018-06-08T21:40:15.866Z,47.67
2018-06-08T21:42:47.501Z,47.43
2018-06-08T21:45:17.913Z,47.27
2018-06-08T21:47:47.135Z,47.13
2018-06-08T21:50:18.622Z,47.24
2018-06-08T21:52:47.674Z,47.34
2018-06-08T21:55:17.981Z,47.53
2018-06-08T21:57:48.782Z,47.60
2018-06-08T22:00:17.619Z,47.49
2018-06-08T22:02:46.332Z,47.48
2018-06-08T22:05:17.788Z,47.42
2018-06-08T22:07:50.058Z,47.52
2018-06-08T22:10:20.837Z,47.57
2018-06-08T22:12:51.607Z,46.52
2018-06-08T22:15:20.756Z,47.59
2018-06-08T22:18:01.609Z,47.85
2018-06-08T22:20:31.006Z,48.00
2018-06-08T22:23:00.476Z,48.16
2018-06-08T22:25:33.517Z,47.99
2018-06-08T22:28:18.877Z,47.85
2018-06-08T22:30:53.617Z,46.11
2018-06-08T22:33:23.046Z,47.46
2018-06-08T22:35:52.450Z,47.51
2018-06-08T22:38:21.704Z,46.12
2018-06-08T22:40:51.337Z,46.22
2018-06-08T22:43:21.437Z,47.73
2018-06-08T22:45:50.394Z,48.16
2018-06-08T22:48:20.225Z,48.28
2018-06-08T22:50:49.153Z,48.55
2018-06-08T22:53:19.382Z,48.89
2018-06-08T22:55:48.697Z,49.01
2018-06-08T23:02:08.074Z,49.35
2018-06-08T23:04:38.243Z,49.46
2018-06-08T23:07:07.475Z,49.33
2018-06-08T23:09:37.679Z,49.27
2018-06-08T23:12:08.892Z,49.38
2018-06-08T23:14:39.001Z,49.31
2018-06-08T23:17:08.864Z,49.07
2018-06-08T23:19:40.352Z,48.98
2018-06-08T23:22:11.245Z,48.96
